sensor_id;sensor_type;location;lat;lon;timestamp;P1;durP1;ratioP1;P2;durP2;ratioP2
1390;SDS011;690;51.454;7.194;2023-06-14T00:01:15;10.10;;;7.23;;
1390;SDS011;690;51.454;7.194;2023-06-14T00:03:42;7.70;;;7.00;;
1390;SDS011;690;51.454;7.194;2023-06-14T00:06:10;9.63;;;7.40;;
1390;SDS011;690;51.454;7.194;2023-06-14T00:08:37;10.57;;;7.50;;
1390;SDS011;690;51.454;7.194;2023-06-14T00:11:04;10.47;;;7.70;;
1390;SDS011;690;51.454;7.194;2023-06-14T00:13:31;9.57;;;7.40;;
1390;SDS011;690;51.454;7.194;2023-06-14T00:15:58;8.37;;;7.10;;
1390;SDS011;690;51.454;7.194;2023-06-14T00:18:25;8.20;;;7.23;;
1390;SDS011;690;51.454;7.194;2023-06-14T00:20:54;7.23;;;6.50;;
1390;SDS011;690;51.454;7.194;2023-06-14T00:23:23;11.33;;;8.27;;
1390;SDS011;690;51.454;7.194;2023-06-14T00:25:50;9.50;;;8.50;;
1390;SDS011;690;51.454;7.194;2023-06-14T00:28:17;7.00;;;6.30;;
1390;SDS011;690;51.454;7.194;2023-06-14T00:30:44;7.27;;;6.40;;
1390;SDS011;690;51.454;7.194;2023-06-14T00:33:11;7.80;;;6.43;;
1390;SDS011;690;51.454;7.194;2023-06-14T00:35:38;8.10;;;6.10;;
1390;SDS011;690;51.454;7.194;2023-06-14T00:38:05;7.30;;;5.80;;
1390;SDS011;690;51.454;7.194;2023-06-14T00:40:33;7.13;;;6.20;;
1390;SDS011;690;51.454;7.194;2023-06-14T00:43:00;7.20;;;6.47;;
1390;SDS011;690;51.454;7.194;2023-06-14T00:45:29;6.20;;;5.60;;
1390;SDS011;690;51.454;7.194;2023-06-14T00:48:00;6.50;;;5.90;;
1390;SDS011;690;51.454;7.194;2023-06-14T00:50:28;7.90;;;5.70;;
1390;SDS011;690;51.454;7.194;2023-06-14T00:52:58;7.93;;;5.83;;
1390;SDS011;690;51.454;7.194;2023-06-14T00:55:26;6.93;;;5.57;;
1390;SDS011;690;51.454;7.194;2023-06-14T00:57:59;5.80;;;5.00;;
1390;SDS011;690;51.454;7.194;2023-06-14T01:00:26;7.97;;;6.30;;
1390;SDS011;690;51.454;7.194;2023-06-14T01:02:53;6.73;;;5.37;;
1390;SDS011;690;51.454;7.194;2023-06-14T01:05:22;6.37;;;5.30;;
1390;SDS011;690;51.454;7.194;2023-06-14T01:07:53;9.30;;;5.43;;
1390;SDS011;690;51.454;7.194;2023-06-14T01:10:32;5.50;;;4.80;;
1390;SDS011;690;51.454;7.194;2023-06-14T01:13:07;7.33;;;5.33;;
1390;SDS011;690;51.454;7.194;2023-06-14T01:15:39;9.77;;;5.00;;
1390;SDS011;690;51.454;7.194;2023-06-14T01:18:07;6.60;;;5.40;;
1390;SDS011;690;51.454;7.194;2023-06-14T01:20:42;8.13;;;4.70;;
1390;SDS011;690;51.454;7.194;2023-06-14T01:23:15;5.80;;;5.20;;
1390;SDS011;690;51.454;7.194;2023-06-14T01:25:42;8.07;;;5.30;;
1390;SDS011;690;51.454;7.194;2023-06-14T01:28:10;6.80;;;5.40;;
1390;SDS011;690;51.454;7.194;2023-06-14T01:30:38;6.17;;;5.07;;
1390;SDS011;690;51.454;7.194;2023-06-14T01:33:10;5.97;;;5.37;;
1390;SDS011;690;51.454;7.194;2023-06-14T01:35:38;4.80;;;4.17;;
1390;SDS011;690;51.454;7.194;2023-06-14T01:38:06;8.40;;;5.17;;
1390;SDS011;690;51.454;7.194;2023-06-14T01:40:35;5.73;;;5.03;;
1390;SDS011;690;51.454;7.194;2023-06-14T01:43:02;5.97;;;4.90;;
1390;SDS011;690;51.454;7.194;2023-06-14T01:45:30;9.63;;;5.17;;
1390;SDS011;690;51.454;7.194;2023-06-14T01:47:59;5.33;;;4.83;;
1390;SDS011;690;51.454;7.194;2023-06-14T01:50:27;5.67;;;5.07;;
1390;SDS011;690;51.454;7.194;2023-06-14T01:52:55;8.00;;;4.77;;
1390;SDS011;690;51.454;7.194;2023-06-14T01:55:22;5.13;;;4.63;;
1390;SDS011;690;51.454;7.194;2023-06-14T01:57:51;6.70;;;5.03;;
1390;SDS011;690;51.454;7.194;2023-06-14T02:00:18;10.63;;;4.77;;
1390;SDS011;690;51.454;7.194;2023-06-14T02:02:46;7.77;;;5.00;;
1390;SDS011;690;51.454;7.194;2023-06-14T02:05:15;6.53;;;5.03;;
1390;SDS011;690;51.454;7.194;2023-06-14T02:07:45;4.93;;;4.43;;
1390;SDS011;690;51.454;7.194;2023-06-14T02:10:11;8.17;;;4.50;;
1390;SDS011;690;51.454;7.194;2023-06-14T02:12:39;7.47;;;4.90;;
1390;SDS011;690;51.454;7.194;2023-06-14T02:15:12;9.37;;;4.93;;
1390;SDS011;690;51.454;7.194;2023-06-14T02:17:41;6.93;;;4.80;;
1390;SDS011;690;51.454;7.194;2023-06-14T02:20:09;4.23;;;3.93;;
1390;SDS011;690;51.454;7.194;2023-06-14T02:22:36;5.13;;;4.63;;
1390;SDS011;690;51.454;7.194;2023-06-14T02:25:03;8.40;;;4.20;;
1390;SDS011;690;51.454;7.194;2023-06-14T02:27:31;6.40;;;4.93;;
1390;SDS011;690;51.454;7.194;2023-06-14T02:29:58;5.00;;;4.50;;
1390;SDS011;690;51.454;7.194;2023-06-14T02:32:27;7.33;;;4.73;;
1390;SDS011;690;51.454;7.194;2023-06-14T02:34:54;5.60;;;5.10;;
1390;SDS011;690;51.454;7.194;2023-06-14T02:37:20;4.77;;;3.70;;
1390;SDS011;690;51.454;7.194;2023-06-14T02:39:48;6.20;;;4.33;;
1390;SDS011;690;51.454;7.194;2023-06-14T02:42:14;11.77;;;4.43;;
1390;SDS011;690;51.454;7.194;2023-06-14T02:44:41;6.70;;;4.60;;
1390;SDS011;690;51.454;7.194;2023-06-14T02:47:09;5.47;;;4.40;;
1390;SDS011;690;51.454;7.194;2023-06-14T02:49:37;4.77;;;4.13;;
1390;SDS011;690;51.454;7.194;2023-06-14T02:52:04;5.20;;;4.00;;
1390;SDS011;690;51.454;7.194;2023-06-14T02:54:34;4.63;;;4.17;;
1390;SDS011;690;51.454;7.194;2023-06-14T02:57:01;6.23;;;4.20;;
1390;SDS011;690;51.454;7.194;2023-06-14T02:59:28;5.23;;;4.73;;
1390;SDS011;690;51.454;7.194;2023-06-14T03:01:55;7.50;;;4.50;;
1390;SDS011;690;51.454;7.194;2023-06-14T03:04:22;6.80;;;4.57;;
1390;SDS011;690;51.454;7.194;2023-06-14T03:06:52;11.43;;;5.10;;
1390;SDS011;690;51.454;7.194;2023-06-14T03:09:19;12.30;;;4.60;;
1390;SDS011;690;51.454;7.194;2023-06-14T03:11:46;5.67;;;3.97;;
1390;SDS011;690;51.454;7.194;2023-06-14T03:14:13;8.00;;;4.47;;
1390;SDS011;690;51.454;7.194;2023-06-14T03:16:39;7.00;;;4.40;;
1390;SDS011;690;51.454;7.194;2023-06-14T03:19:07;6.17;;;4.10;;
1390;SDS011;690;51.454;7.194;2023-06-14T03:21:34;7.83;;;4.27;;
1390;SDS011;690;51.454;7.194;2023-06-14T03:24:03;4.53;;;4.13;;
1390;SDS011;690;51.454;7.194;2023-06-14T03:26:30;4.97;;;4.23;;
1390;SDS011;690;51.454;7.194;2023-06-14T03:28:59;5.83;;;4.50;;
1390;SDS011;690;51.454;7.194;2023-06-14T03:31:26;5.67;;;4.60;;
1390;SDS011;690;51.454;7.194;2023-06-14T03:33:57;4.90;;;4.00;;
1390;SDS011;690;51.454;7.194;2023-06-14T03:36:25;5.20;;;3.87;;
1390;SDS011;690;51.454;7.194;2023-06-14T03:38:53;4.40;;;4.00;;
1390;SDS011;690;51.454;7.194;2023-06-14T03:41:21;8.40;;;4.10;;
1390;SDS011;690;51.454;7.194;2023-06-14T03:43:48;4.77;;;3.60;;
1390;SDS011;690;51.454;7.194;2023-06-14T03:46:15;7.20;;;4.87;;
1390;SDS011;690;51.454;7.194;2023-06-14T03:48:42;6.63;;;4.17;;
1390;SDS011;690;51.454;7.194;2023-06-14T03:51:09;5.90;;;4.20;;
1390;SDS011;690;51.454;7.194;2023-06-14T03:53:36;7.63;;;4.07;;
1390;SDS011;690;51.454;7.194;2023-06-14T03:56:03;5.40;;;4.07;;
1390;SDS011;690;51.454;7.194;2023-06-14T03:58:31;7.70;;;4.37;;
1390;SDS011;690;51.454;7.194;2023-06-14T04:00:58;4.80;;;4.10;;
1390;SDS011;690;51.454;7.194;2023-06-14T04:03:25;4.70;;;3.73;;
1390;SDS011;690;51.454;7.194;2023-06-14T04:05:56;4.43;;;4.03;;
1390;SDS011;690;51.454;7.194;2023-06-14T04:08:24;6.20;;;3.87;;
1390;SDS011;690;51.454;7.194;2023-06-14T04:10:51;5.70;;;3.83;;
1390;SDS011;690;51.454;7.194;2023-06-14T04:13:18;6.30;;;4.40;;
1390;SDS011;690;51.454;7.194;2023-06-14T04:15:46;5.50;;;4.20;;
1390;SDS011;690;51.454;7.194;2023-06-14T04:18:13;5.03;;;4.17;;
1390;SDS011;690;51.454;7.194;2023-06-14T04:20:40;4.63;;;3.53;;
1390;SDS011;690;51.454;7.194;2023-06-14T04:23:13;4.33;;;3.57;;
1390;SDS011;690;51.454;7.194;2023-06-14T04:25:42;3.90;;;3.60;;
1390;SDS011;690;51.454;7.194;2023-06-14T04:28:10;5.70;;;4.17;;
1390;SDS011;690;51.454;7.194;2023-06-14T04:30:37;5.33;;;4.23;;
1390;SDS011;690;51.454;7.194;2023-06-14T04:33:07;7.37;;;4.93;;
1390;SDS011;690;51.454;7.194;2023-06-14T04:35:35;5.80;;;3.60;;
1390;SDS011;690;51.454;7.194;2023-06-14T04:38:02;4.40;;;3.90;;
1390;SDS011;690;51.454;7.194;2023-06-14T04:40:30;5.43;;;3.83;;
1390;SDS011;690;51.454;7.194;2023-06-14T04:42:58;5.00;;;3.53;;
1390;SDS011;690;51.454;7.194;2023-06-14T04:45:26;5.40;;;3.90;;
1390;SDS011;690;51.454;7.194;2023-06-14T04:47:58;9.17;;;4.40;;
1390;SDS011;690;51.454;7.194;2023-06-14T04:50:26;6.53;;;3.87;;
1390;SDS011;690;51.454;7.194;2023-06-14T04:52:54;3.47;;;3.17;;
1390;SDS011;690;51.454;7.194;2023-06-14T04:55:22;5.37;;;3.47;;
1390;SDS011;690;51.454;7.194;2023-06-14T04:57:49;7.07;;;4.00;;
1390;SDS011;690;51.454;7.194;2023-06-14T05:00:18;8.50;;;3.80;;
1390;SDS011;690;51.454;7.194;2023-06-14T05:02:46;14.20;;;4.43;;
1390;SDS011;690;51.454;7.194;2023-06-14T05:05:16;5.50;;;4.10;;
1390;SDS011;690;51.454;7.194;2023-06-14T05:07:46;6.00;;;4.37;;
1390;SDS011;690;51.454;7.194;2023-06-14T05:10:13;8.93;;;3.97;;
1390;SDS011;690;51.454;7.194;2023-06-14T05:12:39;8.63;;;3.90;;
1390;SDS011;690;51.454;7.194;2023-06-14T05:15:09;4.83;;;3.53;;
1390;SDS011;690;51.454;7.194;2023-06-14T05:17:36;4.30;;;3.30;;
1390;SDS011;690;51.454;7.194;2023-06-14T05:20:06;4.30;;;3.90;;
1390;SDS011;690;51.454;7.194;2023-06-14T05:22:35;4.63;;;4.20;;
1390;SDS011;690;51.454;7.194;2023-06-14T05:25:03;4.20;;;3.80;;
1390;SDS011;690;51.454;7.194;2023-06-14T05:27:31;7.30;;;4.40;;
1390;SDS011;690;51.454;7.194;2023-06-14T05:30:00;4.17;;;3.77;;
1390;SDS011;690;51.454;7.194;2023-06-14T05:32:29;6.37;;;3.50;;
1390;SDS011;690;51.454;7.194;2023-06-14T05:34:56;6.30;;;4.20;;
1390;SDS011;690;51.454;7.194;2023-06-14T05:37:23;5.33;;;3.90;;
1390;SDS011;690;51.454;7.194;2023-06-14T05:39:50;11.70;;;3.83;;
1390;SDS011;690;51.454;7.194;2023-06-14T05:42:18;4.20;;;3.80;;
1390;SDS011;690;51.454;7.194;2023-06-14T05:44:45;4.97;;;3.60;;
1390;SDS011;690;51.454;7.194;2023-06-14T05:47:12;7.17;;;3.40;;
1390;SDS011;690;51.454;7.194;2023-06-14T05:49:38;6.57;;;4.00;;
1390;SDS011;690;51.454;7.194;2023-06-14T05:52:06;6.07;;;3.30;;
1390;SDS011;690;51.454;7.194;2023-06-14T05:54:33;6.80;;;3.50;;
1390;SDS011;690;51.454;7.194;2023-06-14T05:57:00;5.73;;;3.40;;
1390;SDS011;690;51.454;7.194;2023-06-14T05:59:29;4.60;;;4.10;;
1390;SDS011;690;51.454;7.194;2023-06-14T06:01:57;6.10;;;3.80;;
1390;SDS011;690;51.454;7.194;2023-06-14T06:04:23;6.30;;;3.70;;
1390;SDS011;690;51.454;7.194;2023-06-14T06:06:51;5.63;;;3.80;;
1390;SDS011;690;51.454;7.194;2023-06-14T06:09:18;5.83;;;3.70;;
1390;SDS011;690;51.454;7.194;2023-06-14T06:11:45;5.20;;;3.60;;
1390;SDS011;690;51.454;7.194;2023-06-14T06:14:12;4.67;;;3.90;;
1390;SDS011;690;51.454;7.194;2023-06-14T06:16:40;6.53;;;3.70;;
1390;SDS011;690;51.454;7.194;2023-06-14T06:19:07;4.33;;;2.90;;
1390;SDS011;690;51.454;7.194;2023-06-14T06:21:34;5.93;;;4.13;;
1390;SDS011;690;51.454;7.194;2023-06-14T06:24:00;8.03;;;3.57;;
1390;SDS011;690;51.454;7.194;2023-06-14T06:26:30;3.90;;;3.50;;
1390;SDS011;690;51.454;7.194;2023-06-14T06:28:57;5.00;;;3.53;;
1390;SDS011;690;51.454;7.194;2023-06-14T06:31:24;9.30;;;3.47;;
1390;SDS011;690;51.454;7.194;2023-06-14T06:33:53;7.00;;;3.50;;
1390;SDS011;690;51.454;7.194;2023-06-14T06:36:20;4.30;;;3.83;;
1390;SDS011;690;51.454;7.194;2023-06-14T06:38:47;4.03;;;3.30;;
1390;SDS011;690;51.454;7.194;2023-06-14T06:41:14;8.40;;;4.30;;
1390;SDS011;690;51.454;7.194;2023-06-14T06:43:41;4.03;;;3.33;;
1390;SDS011;690;51.454;7.194;2023-06-14T06:46:08;4.80;;;3.10;;
1390;SDS011;690;51.454;7.194;2023-06-14T06:48:36;5.63;;;3.93;;
1390;SDS011;690;51.454;7.194;2023-06-14T06:51:04;4.43;;;3.20;;
1390;SDS011;690;51.454;7.194;2023-06-14T06:53:31;7.50;;;3.90;;
1390;SDS011;690;51.454;7.194;2023-06-14T06:55:58;4.63;;;3.50;;
1390;SDS011;690;51.454;7.194;2023-06-14T06:58:25;5.20;;;2.70;;
1390;SDS011;690;51.454;7.194;2023-06-14T07:00:52;6.03;;;3.43;;
1390;SDS011;690;51.454;7.194;2023-06-14T07:03:19;3.50;;;2.77;;
1390;SDS011;690;51.454;7.194;2023-06-14T07:05:46;6.20;;;3.40;;
1390;SDS011;690;51.454;7.194;2023-06-14T07:08:14;4.60;;;3.30;;
1390;SDS011;690;51.454;7.194;2023-06-14T07:10:41;8.50;;;3.43;;
1390;SDS011;690;51.454;7.194;2023-06-14T07:13:08;3.60;;;3.17;;
1390;SDS011;690;51.454;7.194;2023-06-14T07:15:34;3.27;;;2.97;;
1390;SDS011;690;51.454;7.194;2023-06-14T07:18:01;6.83;;;3.13;;
1390;SDS011;690;51.454;7.194;2023-06-14T07:20:28;8.43;;;3.67;;
1390;SDS011;690;51.454;7.194;2023-06-14T07:22:56;6.73;;;3.00;;
1390;SDS011;690;51.454;7.194;2023-06-14T07:25:24;3.80;;;3.50;;
1390;SDS011;690;51.454;7.194;2023-06-14T07:27:51;5.13;;;2.93;;
1390;SDS011;690;51.454;7.194;2023-06-14T07:30:18;6.93;;;3.20;;
1390;SDS011;690;51.454;7.194;2023-06-14T07:32:45;3.23;;;2.70;;
1390;SDS011;690;51.454;7.194;2023-06-14T07:35:12;3.73;;;3.10;;
1390;SDS011;690;51.454;7.194;2023-06-14T07:37:38;3.50;;;3.17;;
1390;SDS011;690;51.454;7.194;2023-06-14T07:40:06;5.80;;;2.90;;
1390;SDS011;690;51.454;7.194;2023-06-14T07:42:36;4.30;;;2.90;;
1390;SDS011;690;51.454;7.194;2023-06-14T07:45:03;5.23;;;2.60;;
1390;SDS011;690;51.454;7.194;2023-06-14T07:47:31;4.30;;;2.83;;
1390;SDS011;690;51.454;7.194;2023-06-14T07:49:58;4.10;;;2.77;;
1390;SDS011;690;51.454;7.194;2023-06-14T07:52:25;4.37;;;2.80;;
1390;SDS011;690;51.454;7.194;2023-06-14T07:54:52;4.50;;;3.43;;
1390;SDS011;690;51.454;7.194;2023-06-14T07:57:19;6.07;;;3.10;;
1390;SDS011;690;51.454;7.194;2023-06-14T07:59:47;5.40;;;3.17;;
1390;SDS011;690;51.454;7.194;2023-06-14T08:02:14;3.30;;;3.00;;
1390;SDS011;690;51.454;7.194;2023-06-14T08:04:41;5.07;;;2.73;;
1390;SDS011;690;51.454;7.194;2023-06-14T08:07:08;3.43;;;3.13;;
1390;SDS011;690;51.454;7.194;2023-06-14T08:09:35;5.23;;;3.20;;
1390;SDS011;690;51.454;7.194;2023-06-14T08:12:03;6.90;;;3.43;;
1390;SDS011;690;51.454;7.194;2023-06-14T08:14:32;4.80;;;3.60;;
1390;SDS011;690;51.454;7.194;2023-06-14T08:17:00;4.60;;;3.00;;
1390;SDS011;690;51.454;7.194;2023-06-14T08:19:27;4.63;;;3.67;;
1390;SDS011;690;51.454;7.194;2023-06-14T08:21:54;4.83;;;2.73;;
1390;SDS011;690;51.454;7.194;2023-06-14T08:24:22;2.77;;;2.30;;
1390;SDS011;690;51.454;7.194;2023-06-14T08:26:50;2.70;;;2.50;;
1390;SDS011;690;51.454;7.194;2023-06-14T08:29:17;4.73;;;2.57;;
1390;SDS011;690;51.454;7.194;2023-06-14T08:31:44;3.40;;;2.13;;
1390;SDS011;690;51.454;7.194;2023-06-14T08:34:13;2.03;;;1.93;;
1390;SDS011;690;51.454;7.194;2023-06-14T08:36:39;2.43;;;2.13;;
1390;SDS011;690;51.454;7.194;2023-06-14T08:39:07;2.60;;;2.40;;
1390;SDS011;690;51.454;7.194;2023-06-14T08:41:34;5.67;;;2.20;;
1390;SDS011;690;51.454;7.194;2023-06-14T08:44:02;3.13;;;2.40;;
1390;SDS011;690;51.454;7.194;2023-06-14T08:46:30;2.83;;;1.80;;
1390;SDS011;690;51.454;7.194;2023-06-14T08:48:59;4.80;;;2.30;;
1390;SDS011;690;51.454;7.194;2023-06-14T08:51:28;3.33;;;2.47;;
1390;SDS011;690;51.454;7.194;2023-06-14T08:53:59;5.90;;;2.17;;
1390;SDS011;690;51.454;7.194;2023-06-14T08:56:29;9.63;;;3.53;;
1390;SDS011;690;51.454;7.194;2023-06-14T08:58:57;3.20;;;1.90;;
1390;SDS011;690;51.454;7.194;2023-06-14T09:01:28;4.60;;;2.30;;
1390;SDS011;690;51.454;7.194;2023-06-14T09:03:56;2.60;;;2.00;;
1390;SDS011;690;51.454;7.194;2023-06-14T09:06:24;2.00;;;1.80;;
1390;SDS011;690;51.454;7.194;2023-06-14T09:08:54;2.83;;;1.60;;
1390;SDS011;690;51.454;7.194;2023-06-14T09:11:22;3.50;;;1.70;;
1390;SDS011;690;51.454;7.194;2023-06-14T09:13:51;3.03;;;2.30;;
1390;SDS011;690;51.454;7.194;2023-06-14T09:16:18;2.33;;;2.13;;
1390;SDS011;690;51.454;7.194;2023-06-14T09:18:46;3.33;;;2.20;;
1390;SDS011;690;51.454;7.194;2023-06-14T09:21:14;3.67;;;1.77;;
1390;SDS011;690;51.454;7.194;2023-06-14T09:23:43;2.67;;;1.80;;
1390;SDS011;690;51.454;7.194;2023-06-14T09:26:13;2.80;;;1.93;;
1390;SDS011;690;51.454;7.194;2023-06-14T09:28:41;5.17;;;1.90;;
1390;SDS011;690;51.454;7.194;2023-06-14T09:31:09;2.80;;;1.60;;
1390;SDS011;690;51.454;7.194;2023-06-14T09:33:37;3.37;;;2.10;;
1390;SDS011;690;51.454;7.194;2023-06-14T09:36:04;2.90;;;1.77;;
1390;SDS011;690;51.454;7.194;2023-06-14T09:38:35;1.47;;;1.13;;
1390;SDS011;690;51.454;7.194;2023-06-14T09:41:03;2.40;;;1.20;;
1390;SDS011;690;51.454;7.194;2023-06-14T09:43:31;1.27;;;1.17;;
1390;SDS011;690;51.454;7.194;2023-06-14T09:46:00;2.37;;;1.60;;
1390;SDS011;690;51.454;7.194;2023-06-14T09:48:26;2.70;;;1.30;;
1390;SDS011;690;51.454;7.194;2023-06-14T09:50:53;2.93;;;1.33;;
1390;SDS011;690;51.454;7.194;2023-06-14T09:53:23;1.60;;;1.20;;
1390;SDS011;690;51.454;7.194;2023-06-14T09:55:51;3.23;;;1.50;;
1390;SDS011;690;51.454;7.194;2023-06-14T09:58:20;4.13;;;1.60;;
1390;SDS011;690;51.454;7.194;2023-06-14T10:00:53;3.50;;;1.40;;
1390;SDS011;690;51.454;7.194;2023-06-14T10:03:21;3.00;;;1.47;;
1390;SDS011;690;51.454;7.194;2023-06-14T10:05:53;2.30;;;1.43;;
1390;SDS011;690;51.454;7.194;2023-06-14T10:08:27;1.60;;;1.20;;
1390;SDS011;690;51.454;7.194;2023-06-14T10:10:58;2.57;;;1.70;;
1390;SDS011;690;51.454;7.194;2023-06-14T10:13:25;2.20;;;1.80;;
1390;SDS011;690;51.454;7.194;2023-06-14T10:15:57;1.60;;;1.50;;
1390;SDS011;690;51.454;7.194;2023-06-14T10:18:31;3.67;;;1.50;;
1390;SDS011;690;51.454;7.194;2023-06-14T10:21:06;1.67;;;1.30;;
1390;SDS011;690;51.454;7.194;2023-06-14T10:23:40;2.60;;;1.70;;
1390;SDS011;690;51.454;7.194;2023-06-14T10:26:09;2.10;;;1.80;;
1390;SDS011;690;51.454;7.194;2023-06-14T10:28:54;1.50;;;1.40;;
1390;SDS011;690;51.454;7.194;2023-06-14T10:31:24;1.83;;;1.67;;
1390;SDS011;690;51.454;7.194;2023-06-14T10:34:06;1.67;;;1.57;;
1390;SDS011;690;51.454;7.194;2023-06-14T10:36:33;4.70;;;1.87;;
1390;SDS011;690;51.454;7.194;2023-06-14T10:39:01;2.90;;;1.43;;
1390;SDS011;690;51.454;7.194;2023-06-14T10:41:31;2.10;;;1.40;;
1390;SDS011;690;51.454;7.194;2023-06-14T10:49:50;3.90;;;1.67;;
1390;SDS011;690;51.454;7.194;2023-06-14T10:52:21;2.17;;;1.80;;
1390;SDS011;690;51.454;7.194;2023-06-14T10:55:03;2.87;;;1.70;;
1390;SDS011;690;51.454;7.194;2023-06-14T10:57:34;2.90;;;2.40;;
1390;SDS011;690;51.454;7.194;2023-06-14T11:00:02;1.80;;;1.50;;
1390;SDS011;690;51.454;7.194;2023-06-14T11:02:48;2.57;;;1.70;;
1390;SDS011;690;51.454;7.194;2023-06-14T11:05:41;3.80;;;1.60;;
1390;SDS011;690;51.454;7.194;2023-06-14T11:08:24;4.53;;;1.73;;
1390;SDS011;690;51.454;7.194;2023-06-14T11:10:59;2.80;;;1.73;;
1390;SDS011;690;51.454;7.194;2023-06-14T11:13:31;2.80;;;1.97;;
1390;SDS011;690;51.454;7.194;2023-06-14T11:15:59;2.37;;;1.67;;
1390;SDS011;690;51.454;7.194;2023-06-14T11:18:27;2.67;;;1.80;;
1390;SDS011;690;51.454;7.194;2023-06-14T11:20:55;11.70;;;2.17;;
1390;SDS011;690;51.454;7.194;2023-06-14T11:23:22;5.47;;;2.53;;
1390;SDS011;690;51.454;7.194;2023-06-14T11:25:49;3.87;;;2.50;;
1390;SDS011;690;51.454;7.194;2023-06-14T11:28:17;3.43;;;2.30;;
1390;SDS011;690;51.454;7.194;2023-06-14T11:30:46;3.23;;;2.30;;
1390;SDS011;690;51.454;7.194;2023-06-14T11:33:16;3.00;;;2.17;;
1390;SDS011;690;51.454;7.194;2023-06-14T11:35:46;5.00;;;2.00;;
1390;SDS011;690;51.454;7.194;2023-06-14T11:38:13;3.30;;;2.30;;
1390;SDS011;690;51.454;7.194;2023-06-14T11:40:40;3.40;;;2.60;;
1390;SDS011;690;51.454;7.194;2023-06-14T11:43:07;5.13;;;2.60;;
1390;SDS011;690;51.454;7.194;2023-06-14T11:45:34;5.67;;;2.50;;
1390;SDS011;690;51.454;7.194;2023-06-14T11:48:01;2.40;;;2.20;;
1390;SDS011;690;51.454;7.194;2023-06-14T11:50:31;6.87;;;2.40;;
1390;SDS011;690;51.454;7.194;2023-06-14T11:53:00;3.70;;;2.73;;
1390;SDS011;690;51.454;7.194;2023-06-14T11:55:35;5.67;;;2.50;;
1390;SDS011;690;51.454;7.194;2023-06-14T11:58:03;4.93;;;2.77;;
1390;SDS011;690;51.454;7.194;2023-06-14T12:00:30;4.17;;;2.70;;
1390;SDS011;690;51.454;7.194;2023-06-14T12:02:57;2.97;;;2.60;;
1390;SDS011;690;51.454;7.194;2023-06-14T12:05:25;3.67;;;2.80;;
1390;SDS011;690;51.454;7.194;2023-06-14T12:07:57;5.73;;;2.73;;
1390;SDS011;690;51.454;7.194;2023-06-14T12:10:26;4.30;;;2.60;;
1390;SDS011;690;51.454;7.194;2023-06-14T12:12:56;3.07;;;2.70;;
1390;SDS011;690;51.454;7.194;2023-06-14T12:15:24;9.23;;;3.10;;
1390;SDS011;690;51.454;7.194;2023-06-14T12:17:54;5.60;;;2.70;;
1390;SDS011;690;51.454;7.194;2023-06-14T12:20:21;5.60;;;2.63;;
1390;SDS011;690;51.454;7.194;2023-06-14T12:22:52;3.60;;;2.60;;
1390;SDS011;690;51.454;7.194;2023-06-14T12:25:28;3.53;;;2.50;;
1390;SDS011;690;51.454;7.194;2023-06-14T12:27:57;2.57;;;2.37;;
1390;SDS011;690;51.454;7.194;2023-06-14T12:30:24;2.57;;;2.37;;
1390;SDS011;690;51.454;7.194;2023-06-14T12:32:51;6.07;;;2.80;;
1390;SDS011;690;51.454;7.194;2023-06-14T12:35:18;2.60;;;2.40;;
1390;SDS011;690;51.454;7.194;2023-06-14T12:37:45;3.10;;;2.87;;
1390;SDS011;690;51.454;7.194;2023-06-14T12:40:12;3.07;;;2.27;;
1390;SDS011;690;51.454;7.194;2023-06-14T12:42:41;4.87;;;3.10;;
1390;SDS011;690;51.454;7.194;2023-06-14T12:45:08;4.87;;;3.53;;
1390;SDS011;690;51.454;7.194;2023-06-14T12:47:36;2.77;;;2.57;;
1390;SDS011;690;51.454;7.194;2023-06-14T12:50:03;5.47;;;3.10;;
1390;SDS011;690;51.454;7.194;2023-06-14T12:52:31;3.37;;;2.63;;
1390;SDS011;690;51.454;7.194;2023-06-14T12:55:01;3.77;;;2.50;;
1390;SDS011;690;51.454;7.194;2023-06-14T12:57:28;5.83;;;2.60;;
1390;SDS011;690;51.454;7.194;2023-06-14T12:59:56;5.47;;;2.90;;
1390;SDS011;690;51.454;7.194;2023-06-14T13:02:23;4.40;;;2.60;;
1390;SDS011;690;51.454;7.194;2023-06-14T13:04:50;3.60;;;2.40;;
1390;SDS011;690;51.454;7.194;2023-06-14T13:07:18;3.00;;;2.67;;
1390;SDS011;690;51.454;7.194;2023-06-14T13:09:45;3.37;;;2.37;;
1390;SDS011;690;51.454;7.194;2023-06-14T13:12:12;2.60;;;2.40;;
1390;SDS011;690;51.454;7.194;2023-06-14T13:14:39;2.50;;;2.30;;
1390;SDS011;690;51.454;7.194;2023-06-14T13:17:09;7.23;;;3.33;;
1390;SDS011;690;51.454;7.194;2023-06-14T13:19:36;3.20;;;2.90;;
1390;SDS011;690;51.454;7.194;2023-06-14T13:22:03;6.50;;;2.60;;
1390;SDS011;690;51.454;7.194;2023-06-14T13:24:30;3.00;;;2.63;;
1390;SDS011;690;51.454;7.194;2023-06-14T13:26:57;3.87;;;2.50;;
1390;SDS011;690;51.454;7.194;2023-06-14T13:29:24;3.67;;;2.30;;
1390;SDS011;690;51.454;7.194;2023-06-14T13:31:52;2.60;;;2.40;;
1390;SDS011;690;51.454;7.194;2023-06-14T13:34:22;2.67;;;2.30;;
1390;SDS011;690;51.454;7.194;2023-06-14T13:36:49;2.80;;;2.57;;
1390;SDS011;690;51.454;7.194;2023-06-14T13:39:16;3.80;;;3.27;;
1390;SDS011;690;51.454;7.194;2023-06-14T13:41:43;2.93;;;2.70;;
1390;SDS011;690;51.454;7.194;2023-06-14T13:44:10;3.87;;;3.37;;
1390;SDS011;690;51.454;7.194;2023-06-14T13:46:39;3.20;;;2.87;;
1390;SDS011;690;51.454;7.194;2023-06-14T13:49:07;3.67;;;2.70;;
1390;SDS011;690;51.454;7.194;2023-06-14T13:51:36;4.20;;;3.13;;
1390;SDS011;690;51.454;7.194;2023-06-14T13:54:04;4.40;;;3.20;;
1390;SDS011;690;51.454;7.194;2023-06-14T13:56:31;5.33;;;2.67;;
1390;SDS011;690;51.454;7.194;2023-06-14T13:58:58;3.27;;;2.60;;
1390;SDS011;690;51.454;7.194;2023-06-14T14:01:25;6.20;;;3.00;;
1390;SDS011;690;51.454;7.194;2023-06-14T14:03:54;5.63;;;2.73;;
1390;SDS011;690;51.454;7.194;2023-06-14T14:06:20;3.43;;;2.83;;
1390;SDS011;690;51.454;7.194;2023-06-14T14:08:49;4.37;;;3.03;;
1390;SDS011;690;51.454;7.194;2023-06-14T14:11:16;5.43;;;3.10;;
1390;SDS011;690;51.454;7.194;2023-06-14T14:13:43;7.10;;;2.90;;
1390;SDS011;690;51.454;7.194;2023-06-14T14:16:10;3.00;;;2.70;;
1390;SDS011;690;51.454;7.194;2023-06-14T14:18:40;3.70;;;2.67;;
1390;SDS011;690;51.454;7.194;2023-06-14T14:21:07;2.43;;;2.23;;
1390;SDS011;690;51.454;7.194;2023-06-14T14:23:34;3.13;;;2.83;;
1390;SDS011;690;51.454;7.194;2023-06-14T14:26:02;5.10;;;3.10;;
1390;SDS011;690;51.454;7.194;2023-06-14T14:28:29;3.60;;;2.70;;
1390;SDS011;690;51.454;7.194;2023-06-14T14:30:57;3.00;;;2.60;;
1390;SDS011;690;51.454;7.194;2023-06-14T14:33:24;2.83;;;2.50;;
1390;SDS011;690;51.454;7.194;2023-06-14T14:35:51;5.17;;;3.10;;
1390;SDS011;690;51.454;7.194;2023-06-14T14:38:18;4.07;;;3.00;;
1390;SDS011;690;51.454;7.194;2023-06-14T14:40:45;3.50;;;3.20;;
1390;SDS011;690;51.454;7.194;2023-06-14T14:43:13;6.27;;;3.40;;
1390;SDS011;690;51.454;7.194;2023-06-14T14:45:50;3.50;;;3.07;;
1390;SDS011;690;51.454;7.194;2023-06-14T14:48:17;6.87;;;3.30;;
1390;SDS011;690;51.454;7.194;2023-06-14T14:50:44;5.23;;;3.27;;
1390;SDS011;690;51.454;7.194;2023-06-14T14:53:11;3.77;;;2.90;;
1390;SDS011;690;51.454;7.194;2023-06-14T14:55:37;3.40;;;3.10;;
1390;SDS011;690;51.454;7.194;2023-06-14T14:58:06;3.10;;;2.80;;
1390;SDS011;690;51.454;7.194;2023-06-14T15:00:34;6.50;;;3.63;;
1390;SDS011;690;51.454;7.194;2023-06-14T15:03:01;4.10;;;2.93;;
1390;SDS011;690;51.454;7.194;2023-06-14T15:05:28;6.90;;;3.30;;
1390;SDS011;690;51.454;7.194;2023-06-14T15:07:55;4.47;;;3.30;;
1390;SDS011;690;51.454;7.194;2023-06-14T15:10:22;3.73;;;3.43;;
1390;SDS011;690;51.454;7.194;2023-06-14T15:12:49;4.20;;;3.20;;
1390;SDS011;690;51.454;7.194;2023-06-14T15:15:16;3.63;;;2.70;;
1390;SDS011;690;51.454;7.194;2023-06-14T15:17:44;3.53;;;2.37;;
1390;SDS011;690;51.454;7.194;2023-06-14T15:20:11;2.83;;;2.63;;
1390;SDS011;690;51.454;7.194;2023-06-14T15:22:39;2.90;;;2.47;;
1390;SDS011;690;51.454;7.194;2023-06-14T15:25:07;3.83;;;2.90;;
1390;SDS011;690;51.454;7.194;2023-06-14T15:27:34;3.97;;;2.77;;
1390;SDS011;690;51.454;7.194;2023-06-14T15:30:01;4.00;;;2.87;;
1390;SDS011;690;51.454;7.194;2023-06-14T15:32:28;3.90;;;2.73;;
1390;SDS011;690;51.454;7.194;2023-06-14T15:34:56;4.00;;;3.60;;
1390;SDS011;690;51.454;7.194;2023-06-14T15:37:23;3.77;;;2.83;;
1390;SDS011;690;51.454;7.194;2023-06-14T15:39:50;3.10;;;2.90;;
1390;SDS011;690;51.454;7.194;2023-06-14T15:42:17;3.57;;;3.23;;